3R7

Jennings Airport

Jennings, Louisiana, USA
METAR K3R7 181615Z AUTO 12007KT 10SM CLR 18/11 A3022 RMK AO2 T01820105
Observed Flight Rules
Nov-18 @ 16:15 UTC (22 minutes ago) Visual Flight Rules
Wind Visibility Clouds
120° at 7 knots 10 miles
  • Clear skies
Temperatures Readings
Current 18°C / 64°F
Dewpoint 11°C / 52°F
Humidity 64%
Altimeter 30.22" Hg
Pressure 1023 hPa
Elevation 7
METAR K3R7 181615Z AUTO 12007KT 10SM CLR 18/11 A3022 RMK AO2 T01820105
Observed Flight Rules
Nov-18 @ 16:15 UTC
(22 minutes ago)
VFR
Wind Visibility
120° at 7 knots 10 miles
Clouds
  • Clear skies
Temperature Dewpoint
18°C / 64°F 11°C / 52°F
Humidity Altimeter Pressure
64% 30.22" Hg 1023 hPa